Dades meteomassalio
Diari Summary for Octubre 26, 2017 Units:  English    Metric   Both
« Previous Day
Next Day »
Diari Semanal Mensual Anual Personalitzat
  Maxima: Minima: Mijana:
Temperatura: TemperatureC °F 3.9 °F 12.9 °F
Rosada: DewpointC °F 1.0 °F 4.7 °F
Humitat: Humidity % 30 % 61 %
Velocitat del vent: WindSpeedKMH mph 0.0 mph 1.6 mph
Racha vent: WindSpeedGustKMH mph - -
Vent:- - West
Pressio: PressurehPa in 1027.7 in -
Pluja: 0.0 in    
Historical Graphs
 
 
Tabular Data for Octubre 26, 2017
Time Temperature Dew Point Pressure Wind Wind Speed Wind Gust Humidity Rainfall Rate (Hourly) solar Conditions
TemperatureC °F DewpointC °F PressurehPa in Calm     Humidity % HourlyPrecipMM in SolarRadiationWatts/m^2 W/m2 Conditions
00:01 8.9 °F 4.5 °F 1028.0 in Calm     74 % 0.0 in 0.0 W/m2 CLR
00:06 8.9 °F 4.5 °F 1028.0 in Calm     74 % 0.0 in 0.0 W/m2 CLR
00:12 8.9 °F 4.3 °F 1028.0 in Calm     73 % 0.0 in 0.0 W/m2 CLR
00:17 8.3 °F 3.8 °F 1028.0 in Calm     73 % 0.0 in 0.0 W/m2 CLR
00:22 8.3 °F 3.8 °F 1028.0 in Calm     73 % 0.0 in 0.0 W/m2 CLR
00:27 8.3 °F 3.8 °F 1028.0 in Calm     73 % 0.0 in 0.0 W/m2 CLR
00:32 8.3 °F 3.9 °F 1028.0 in Calm     74 % 0.0 in 0.0 W/m2 CLR
00:37 8.3 °F 4.2 °F 1028.0 in Calm     75 % 0.0 in 0.0 W/m2 CLR
00:42 8.3 °F 4.2 °F 1028.0 in Calm     75 % 0.0 in 0.0 W/m2 CLR
00:47 8.3 °F 4.3 °F 1028.0 in Calm     76 % 0.0 in 0.0 W/m2 CLR
00:52 8.3 °F 4.3 °F 1028.3 in Calm     76 % 0.0 in 0.0 W/m2 CLR
00:57 8.3 °F 4.3 °F 1028.3 in Calm     76 % 0.0 in 0.0 W/m2 CLR
01:02 7.8 °F 4.0 °F 1028.3 in Calm     77 % 0.0 in 0.0 W/m2 CLR
01:07 7.8 °F 4.0 °F 1028.3 in Calm     77 % 0.0 in 0.0 W/m2 CLR
01:12 7.8 °F 4.0 °F 1028.3 in Calm     77 % 0.0 in 0.0 W/m2 CLR
01:17 7.8 °F 4.2 °F 1028.3 in Calm     78 % 0.0 in 0.0 W/m2 CLR
01:22 7.8 °F 4.2 °F 1028.3 in Calm     78 % 0.0 in 0.0 W/m2 CLR
01:27 7.8 °F 4.2 °F 1028.3 in Calm     78 % 0.0 in 0.0 W/m2 CLR
01:32 7.8 °F 4.2 °F 1028.3 in Calm     78 % 0.0 in 0.0 W/m2 CLR
01:37 8.3 °F 4.7 °F 1028.0 in Calm     78 % 0.0 in 0.0 W/m2 CLR
01:42 8.3 °F 4.7 °F 1028.0 in Calm     78 % 0.0 in 0.0 W/m2 CLR
01:47 8.9 °F 5.4 °F 1028.0 in Calm     79 % 0.0 in 0.0 W/m2 CLR
01:52 8.9 °F 5.4 °F 1028.3 in Calm     79 % 0.0 in 0.0 W/m2 CLR
01:57 8.3 °F 4.9 °F 1028.0 in Calm     79 % 0.0 in 0.0 W/m2 CLR
02:02 8.3 °F 4.9 °F 1028.0 in Calm     79 % 0.0 in 0.0 W/m2 CLR
02:07 8.3 °F 5.1 °F 1028.0 in Calm     80 % 0.0 in 0.0 W/m2 CLR
02:12 7.8 °F 4.6 °F 1028.0 in Calm     80 % 0.0 in 0.0 W/m2 CLR
02:17 7.8 °F 4.6 °F 1028.0 in Calm     80 % 0.0 in 0.0 W/m2 CLR
02:22 7.8 °F 4.6 °F 1028.3 in Calm     80 % 0.0 in 0.0 W/m2 CLR
02:27 7.2 °F 4.0 °F 1028.3 in Calm     80 % 0.0 in 0.0 W/m2 CLR
02:32 7.2 °F 4.0 °F 1028.3 in Calm     80 % 0.0 in 0.0 W/m2 CLR
02:37 7.2 °F 4.0 °F 1028.3 in Calm     80 % 0.0 in 0.0 W/m2 CLR
02:42 7.8 °F 4.7 °F 1028.3 in Calm     81 % 0.0 in 0.0 W/m2 CLR
02:47 8.3 °F 5.4 °F 1028.0 in Calm     82 % 0.0 in 0.0 W/m2 CLR
02:52 8.3 °F 5.3 °F 1028.0 in Calm     81 % 0.0 in 0.0 W/m2 CLR
02:57 7.8 °F 4.7 °F 1028.0 in Calm     81 % 0.0 in 0.0 W/m2 CLR
03:02 7.8 °F 4.7 °F 1028.0 in Calm     81 % 0.0 in 0.0 W/m2 CLR
03:07 8.3 °F 5.3 °F 1028.0 in Calm     81 % 0.0 in 0.0 W/m2 CLR
03:12 8.3 °F 5.4 °F 1028.0 in Calm     82 % 0.0 in 0.0 W/m2 CLR
03:17 7.8 °F 4.9 °F 1028.0 in Calm     82 % 0.0 in 0.0 W/m2 CLR
03:22 7.8 °F 4.9 °F 1028.3 in Calm     82 % 0.0 in 0.0 W/m2 CLR
03:27 7.8 °F 4.9 °F 1028.0 in Calm     82 % 0.0 in 0.0 W/m2 CLR
03:32 7.8 °F 4.9 °F 1028.0 in Calm     82 % 0.0 in 0.0 W/m2 CLR
03:37 7.8 °F 4.9 °F 1028.0 in Calm     82 % 0.0 in 0.0 W/m2 CLR
03:42 7.2 °F 4.3 °F 1028.0 in Calm     82 % 0.0 in 0.0 W/m2 CLR
03:47 7.2 °F 4.5 °F 1028.0 in Calm     83 % 0.0 in 0.0 W/m2 CLR
03:52 7.2 °F 4.5 °F 1028.3 in Calm     83 % 0.0 in 0.0 W/m2 CLR
03:57 7.2 °F 4.3 °F 1028.0 in Calm     82 % 0.0 in 0.0 W/m2 CLR
04:02 7.8 °F 4.9 °F 1028.0 in Calm     82 % 0.0 in 0.0 W/m2 CLR
04:07 7.8 °F 5.2 °F 1028.0 in Calm     84 % 0.0 in 0.0 W/m2 CLR
04:12 7.2 °F 4.5 °F 1028.0 in Calm     83 % 0.0 in 0.0 W/m2 CLR
04:17 7.2 °F 4.7 °F 1028.0 in Calm     84 % 0.0 in 0.0 W/m2 CLR
04:22 7.2 °F 4.7 °F 1028.0 in Calm     84 % 0.0 in 0.0 W/m2 CLR
04:27 7.2 °F 4.5 °F 1028.0 in Calm     83 % 0.0 in 0.0 W/m2 CLR
04:32 7.2 °F 4.3 °F 1028.0 in Calm     82 % 0.0 in 0.0 W/m2 CLR
04:37 6.7 °F 3.8 °F 1028.0 in Calm     82 % 0.0 in 0.0 W/m2 CLR
04:42 6.7 °F 4.0 °F 1028.0 in Calm     83 % 0.0 in 0.0 W/m2 CLR
04:47 6.7 °F 4.2 °F 1028.0 in Calm     84 % 0.0 in 0.0 W/m2 CLR
04:52 6.7 °F 4.3 °F 1028.0 in Calm     85 % 0.0 in 0.0 W/m2 CLR
04:57 6.7 °F 4.3 °F 1028.0 in Calm     85 % 0.0 in 0.0 W/m2 CLR
05:02 6.1 °F 3.4 °F 1028.0 in Calm     83 % 0.0 in 0.0 W/m2 CLR
05:07 6.1 °F 3.4 °F 1028.0 in Calm     83 % 0.0 in 0.0 W/m2 CLR
05:12 6.1 °F 3.4 °F 1028.0 in Calm     83 % 0.0 in 0.0 W/m2 CLR
05:17 5.6 °F 2.9 °F 1028.0 in Calm     83 % 0.0 in 0.0 W/m2 CLR
05:22 5.6 °F 3.2 °F 1028.0 in Calm     85 % 0.0 in 0.0 W/m2 CLR
05:27 5.6 °F 3.2 °F 1028.3 in Calm     85 % 0.0 in 0.0 W/m2 CLR
05:32 5.6 °F 3.2 °F 1028.3 in Calm     85 % 0.0 in 0.0 W/m2 CLR
05:37 5.6 °F 3.1 °F 1028.0 in Calm     84 % 0.0 in 0.0 W/m2 CLR
05:42 5.6 °F 3.1 °F 1028.3 in Calm     84 % 0.0 in 0.0 W/m2 CLR
05:47 5.6 °F 3.1 °F 1028.3 in Calm     84 % 0.0 in 0.0 W/m2 CLR
05:52 5.6 °F 3.1 °F 1028.3 in Calm     84 % 0.0 in 0.0 W/m2 CLR
05:57 5.6 °F 3.1 °F 1028.3 in Calm     84 % 0.0 in 0.0 W/m2 CLR
06:02 5.6 °F 3.2 °F 1028.3 in Calm     85 % 0.0 in 0.0 W/m2 CLR
06:07 5.0 °F 2.7 °F 1028.3 in Calm     85 % 0.0 in 0.0 W/m2 CLR
06:12 5.0 °F 2.7 °F 1028.3 in Calm     85 % 0.0 in 0.0 W/m2 CLR
06:17 5.0 °F 2.8 °F 1028.3 in Calm     86 % 0.0 in 0.0 W/m2 CLR
06:22 5.0 °F 2.8 °F 1028.3 in Calm     86 % 0.0 in 0.0 W/m2 CLR
06:27 5.0 °F 2.8 °F 1028.3 in Calm     86 % 0.0 in 0.0 W/m2 CLR
06:32 5.0 °F 2.8 °F 1028.3 in Calm     86 % 0.0 in 0.0 W/m2 CLR
06:37 5.0 °F 2.8 °F 1028.3 in Calm     86 % 0.0 in 0.0 W/m2 CLR
06:42 5.0 °F 3.0 °F 1028.3 in Calm     87 % 0.0 in 0.0 W/m2 CLR
06:47 5.0 °F 2.8 °F 1028.3 in Calm     86 % 0.0 in 0.0 W/m2 CLR
06:52 5.0 °F 3.0 °F 1028.7 in Calm     87 % 0.0 in 0.0 W/m2 CLR
06:57 4.4 °F 2.4 °F 1028.7 in Calm     87 % 0.0 in 0.0 W/m2 CLR
07:02 4.4 °F 2.4 °F 1028.7 in Calm     87 % 0.0 in 0.0 W/m2 CLR
07:07 4.4 °F 2.3 °F 1028.7 in Calm     86 % 0.0 in 0.0 W/m2 CLR
07:12 5.0 °F 3.0 °F 1028.7 in Calm     87 % 0.0 in 0.0 W/m2 CLR
07:17 5.0 °F 3.0 °F 1028.7 in Calm     87 % 0.0 in 0.0 W/m2 CLR
07:23 5.0 °F 2.8 °F 1028.7 in Calm     86 % 0.0 in 0.0 W/m2 CLR
07:27 5.0 °F 3.0 °F 1028.7 in Calm     87 % 0.0 in 0.0 W/m2 CLR
07:33 5.0 °F 3.0 °F 1028.7 in Calm     87 % 0.0 in 0.0 W/m2 CLR
07:38 5.0 °F 3.0 °F 1028.7 in Calm     87 % 0.0 in 0.0 W/m2 CLR
07:43 5.0 °F 3.0 °F 1028.7 in Calm     87 % 0.0 in 0.0 W/m2 CLR
07:48 4.4 °F 2.3 °F 1028.7 in Calm     86 % 0.0 in 0.0 W/m2 CLR
07:53 4.4 °F 2.4 °F 1029.0 in Calm     87 % 0.0 in 0.0 W/m2 CLR
07:58 4.4 °F 2.6 °F 1029.0 in Calm     88 % 0.0 in 0.0 W/m2 CLR
08:03 4.4 °F 2.6 °F 1028.7 in Calm     88 % 0.0 in 0.0 W/m2 CLR
08:08 4.4 °F 2.6 °F 1029.0 in Calm     88 % 0.0 in 0.0 W/m2 CLR
08:13 4.4 °F 2.4 °F 1028.7 in Calm     87 % 0.0 in 0.0 W/m2 CLR
08:18 4.4 °F 2.6 °F 1029.0 in Calm     88 % 0.0 in 0.0 W/m2 OVC
08:23 3.9 °F 2.1 °F 1029.0 in Calm     88 % 0.0 in 5.0 W/m2 OVC
08:28 4.4 °F 2.4 °F 1029.0 in Calm     87 % 0.0 in 7.0 W/m2 OVC
08:33 4.4 °F 2.4 °F 1029.0 in Calm     87 % 0.0 in 9.0 W/m2 BKN
08:34 4.4 °F 2.4 °F 1029.0 in Calm     87 % 0.0 in 9.0 W/m2 BKN
08:39 4.4 °F 2.6 °F 1029.0 in Calm     88 % 0.0 in 12.0 W/m2 BKN
08:44 4.4 °F 2.6 °F 1029.0 in Calm     88 % 0.0 in 14.0 W/m2 BKN
08:49 4.4 °F 2.6 °F 1029.0 in Calm     88 % 0.0 in 16.0 W/m2 BKN
08:54 4.4 °F 2.6 °F 1029.0 in Calm     88 % 0.0 in 23.0 W/m2 BKN
08:59 4.4 °F 2.6 °F 1029.3 in Calm     88 % 0.0 in 33.0 W/m2 BKN
09:04 5.0 °F 3.0 °F 1029.0 in Calm     87 % 0.0 in 42.0 W/m2 BKN
09:09 5.0 °F 2.8 °F 1029.0 in Calm     86 % 0.0 in 56.0 W/m2 SCT
09:14 5.0 °F 2.8 °F 1029.3 in Calm     86 % 0.0 in 70.0 W/m2 FEW
09:19 5.0 °F 2.7 °F 1029.3 in Calm     85 % 0.0 in 81.0 W/m2 FEW
09:24 5.6 °F 3.1 °F 1029.3 in Calm     84 % 0.0 in 98.0 W/m2 FEW
09:29 5.6 °F 3.1 °F 1029.3 in Calm     84 % 0.0 in 116.0 W/m2 CLR
09:34 5.6 °F 2.9 °F 1029.3 in Calm     83 % 0.0 in 114.0 W/m2 CLR
09:39 6.1 °F 3.4 °F 1029.3 in Calm     83 % 0.0 in 148.0 W/m2 CLR
09:44 6.7 °F 3.8 °F 1029.3 in Calm     82 % 0.0 in 162.0 W/m2 CLR
09:49 6.7 °F 3.4 °F 1029.3 in Calm     80 % 0.0 in 121.0 W/m2 CLR
09:54 7.2 °F 3.4 °F 1029.3 in Calm     77 % 0.0 in 202.0 W/m2 CLR
09:59 7.2 °F 3.1 °F 1029.3 in Calm     75 % 0.0 in 206.0 W/m2 CLR
10:04 7.8 °F 3.2 °F 1029.3 in Calm     73 % 0.0 in 232.0 W/m2 CLR
10:09 7.8 °F 3.1 °F 1029.3 in Calm     72 % 0.0 in 248.0 W/m2 CLR
10:14 8.3 °F 3.2 °F 1029.7 in Calm     70 % 0.0 in 265.0 W/m2 CLR
10:19 8.9 °F 3.5 °F 1029.7 in Calm     69 % 0.0 in 278.0 W/m2 CLR
10:24 9.4 °F 3.6 °F 1029.7 in Calm     67 % 0.0 in 290.0 W/m2 CLR
10:29 10.0 °F 3.9 °F 1029.7 in Calm     66 % 0.0 in 304.0 W/m2 CLR
10:34 10.6 °F 4.2 °F 1029.7 in Calm     65 % 0.0 in 318.0 W/m2 CLR
10:39 11.1 °F 4.6 °F 1029.7 in Calm     64 % 0.0 in 329.0 W/m2 CLR
10:44 11.7 °F 4.8 °F 1029.3 in Calm     63 % 0.0 in 343.0 W/m2 CLR
10:49 12.2 °F 4.9 °F 1029.3 in Calm     61 % 0.0 in 355.0 W/m2 CLR
10:54 12.2 °F 4.7 °F 1029.3 in Calm     60 % 0.0 in 369.0 W/m2 CLR
10:59 12.8 °F 4.9 °F 1029.3 in Calm     59 % 0.0 in 380.0 W/m2 CLR
11:04 13.3 °F 5.0 °F 1029.7 in Calm     57 % 0.0 in 390.0 W/m2 CLR
11:09 13.9 °F 4.7 °F 1029.7 in Calm     54 % 0.0 in 401.0 W/m2 CLR
11:14 13.9 °F 4.7 °F 1029.3 in Calm     54 % 0.0 in 413.0 W/m2 CLR
11:19 14.4 °F 4.7 °F 1029.3 in Calm     52 % 0.0 in 425.0 W/m2 CLR
11:24 14.4 °F 4.2 °F 1029.3 in Calm     50 % 0.0 in 436.0 W/m2 CLR
11:29 15.0 °F 4.4 °F 1029.3 in Calm     49 % 0.0 in 446.0 W/m2 CLR
11:34 16.1 °F 5.4 °F 1029.3 in Calm     49 % 0.0 in 455.0 W/m2 CLR
11:39 16.7 °F 5.9 °F 1029.3 in Calm     49 % 0.0 in 468.0 W/m2 CLR
11:44 16.7 °F 5.6 °F 1029.3 in Calm     48 % 0.0 in 475.0 W/m2 CLR
11:49 17.2 °F 6.1 °F 1029.3 in Calm     48 % 0.0 in 482.0 W/m2 CLR
11:54 18.3 °F 7.1 °F 1029.3 in Calm     48 % 0.0 in 492.0 W/m2 CLR
11:59 18.9 °F 7.0 °F 1029.3 in Calm     46 % 0.0 in 503.0 W/m2 CLR
12:04 19.4 °F 7.5 °F 1029.3 in Calm     46 % 0.0 in 510.0 W/m2 CLR
12:09 19.4 °F 7.5 °F 1029.3 in Calm     46 % 0.0 in 517.0 W/m2 CLR
12:14 20.0 °F 7.7 °F 1029.3 in Calm     45 % 0.0 in 526.0 W/m2 CLR
12:19 20.6 °F 8.2 °F 1029.3 in Calm     45 % 0.0 in 531.0 W/m2 CLR
12:24 20.6 °F 8.2 °F 1029.3 in North 6.4 mph 6.4 mph 45 % 0.0 in 538.0 W/m2 CLR
12:29 21.1 °F 8.7 °F 1029.3 in North 6.4 mph 6.4 mph 45 % 0.0 in 541.0 W/m2 CLR
12:34 21.1 °F 9.1 °F 1029.3 in NNW 6.4 mph 6.4 mph 46 % 0.0 in 548.0 W/m2 CLR
12:39 21.7 °F 9.6 °F 1029.3 in NW 7.4 mph 7.4 mph 46 % 0.0 in 554.0 W/m2 CLR
12:44 21.7 °F 9.6 °F 1029.3 in NW 9.3 mph 9.3 mph 46 % 0.0 in 557.0 W/m2 CLR
12:49 21.7 °F 9.2 °F 1029.3 in North 13.0 mph 13.0 mph 45 % 0.0 in 564.0 W/m2 CLR
12:54 22.2 °F 10.4 °F 1029.3 in North 9.3 mph 9.3 mph 47 % 0.0 in 568.0 W/m2 CLR
12:59 22.2 °F 10.1 °F 1029.0 in North 5.6 mph 6.0 mph 46 % 0.0 in 571.0 W/m2 CLR
13:04 22.2 °F 9.7 °F 1029.3 in NNW 13.0 mph 13.0 mph 45 % 0.0 in 575.0 W/m2 CLR
13:09 22.8 °F 10.6 °F 1029.0 in NW 9.3 mph 9.3 mph 46 % 0.0 in 577.0 W/m2 CLR
13:14 22.8 °F 9.9 °F 1029.0 in NNW 7.4 mph 7.4 mph 44 % 0.0 in 580.0 W/m2 CLR
13:19 22.8 °F 9.9 °F 1029.0 in NNW 5.6 mph   44 % 0.0 in 584.0 W/m2 CLR
13:24 22.8 °F 9.6 °F 1029.0 in NNE 7.4 mph 7.4 mph 43 % 0.0 in 585.0 W/m2 CLR
13:29 22.8 °F 9.2 °F 1029.0 in NNW 9.7 mph 9.7 mph 42 % 0.0 in 587.0 W/m2 CLR
13:34 23.3 °F 9.3 °F 1028.7 in WNW 14.8 mph 14.8 mph 41 % 0.0 in 589.0 W/m2 CLR
13:39 23.3 °F 9.3 °F 1028.7 in West 1.9 mph 4.0 mph 41 % 0.0 in 589.0 W/m2 CLR
13:44 23.9 °F 9.4 °F 1028.7 in West 3.7 mph 3.7 mph 40 % 0.0 in 589.0 W/m2 CLR
13:50 23.9 °F 9.1 °F 1028.7 in Calm   0.5 mph 39 % 0.0 in 587.0 W/m2 CLR
13:55 24.4 °F 9.6 °F 1028.7 in SSW 1.9 mph   39 % 0.0 in 587.0 W/m2 CLR
14:00 23.9 °F 9.1 °F 1028.7 in WNW 5.6 mph   39 % 0.0 in 587.0 W/m2 CLR
14:05 24.4 °F 9.6 °F 1028.7 in Calm     39 % 0.0 in 585.0 W/m2 CLR
14:10 24.4 °F 9.6 °F 1028.7 in WSW 5.6 mph   39 % 0.0 in 584.0 W/m2 CLR
14:15 24.4 °F 9.2 °F 1028.7 in SW 3.7 mph   38 % 0.0 in 580.0 W/m2 CLR
14:20 24.4 °F 9.2 °F 1028.3 in Calm     38 % 0.0 in 578.0 W/m2 CLR
14:25 24.4 °F 8.8 °F 1028.3 in Calm     37 % 0.0 in 577.0 W/m2 CLR
14:30 24.4 °F 8.4 °F 1028.3 in Calm     36 % 0.0 in 575.0 W/m2 CLR
14:35 25.0 °F 8.9 °F 1028.3 in WNW 1.6 mph 1.6 mph 36 % 0.0 in 571.0 W/m2 CLR
14:40 25.0 °F 8.9 °F 1028.3 in NW 8.0 mph 8.0 mph 36 % 0.0 in 564.0 W/m2 CLR
14:45 25.0 °F 8.9 °F 1028.0 in WNW 3.7 mph   36 % 0.0 in 561.0 W/m2 CLR
14:50 25.0 °F 8.9 °F 1028.0 in NNW 5.6 mph 5.6 mph 36 % 0.0 in 557.0 W/m2 CLR
14:55 25.6 °F 9.4 °F 1028.0 in NW 8.0 mph 8.2 mph 36 % 0.0 in 552.0 W/m2 CLR
15:00 25.6 °F 9.4 °F 1028.0 in WNW 13.0 mph 13.0 mph 36 % 0.0 in 545.0 W/m2 CLR
15:05 25.6 °F 9.8 °F 1028.0 in WNW 7.4 mph 7.4 mph 37 % 0.0 in 540.0 W/m2 CLR
15:10 25.6 °F 9.8 °F 1028.0 in NW 11.1 mph 11.1 mph 37 % 0.0 in 533.0 W/m2 CLR
15:15 25.6 °F 9.4 °F 1027.7 in NW 5.6 mph 5.6 mph 36 % 0.0 in 527.0 W/m2 CLR
15:20 26.1 °F 9.4 °F 1027.7 in WNW 7.4 mph 7.4 mph 35 % 0.0 in 519.0 W/m2 CLR
15:25 26.1 °F 9.4 °F 1027.7 in WNW 1.9 mph   35 % 0.0 in 513.0 W/m2 CLR
15:30 26.1 °F 8.6 °F 1027.7 in NW 5.6 mph 5.6 mph 33 % 0.0 in 504.0 W/m2 CLR
15:35 26.1 °F 9.0 °F 1027.7 in NNW 9.7 mph 9.7 mph 34 % 0.0 in 497.0 W/m2 CLR
15:40 26.7 °F 9.1 °F 1027.7 in NNW 7.4 mph   33 % 0.0 in 490.0 W/m2 CLR
15:45 26.7 °F 9.5 °F 1027.7 in NW 3.7 mph 3.7 mph 34 % 0.0 in 480.0 W/m2 CLR
15:50 26.7 °F 9.5 °F 1027.7 in Calm     34 % 0.0 in 471.0 W/m2 CLR
15:55 26.1 °F 9.0 °F 1027.7 in WNW 1.9 mph 1.9 mph 34 % 0.0 in 462.0 W/m2 CLR
16:00 26.1 °F 9.4 °F 1027.7 in North 5.6 mph 5.6 mph 35 % 0.0 in 452.0 W/m2 CLR
16:05 26.1 °F 9.9 °F 1027.7 in Calm     36 % 0.0 in 439.0 W/m2 CLR
16:10 26.1 °F 9.9 °F 1027.7 in NW 3.2 mph 3.2 mph 36 % 0.0 in 427.0 W/m2 CLR
16:15 26.1 °F 9.9 °F 1027.7 in NNW 7.4 mph 7.4 mph 36 % 0.0 in 418.0 W/m2 CLR
16:20 26.1 °F 10.3 °F 1027.7 in NW 1.9 mph 1.9 mph 37 % 0.0 in 404.0 W/m2 CLR
16:25 26.1 °F 10.3 °F 1027.7 in NW 1.9 mph 1.9 mph 37 % 0.0 in 394.0 W/m2 CLR
16:30 26.1 °F 9.4 °F 1027.7 in NW 4.8 mph 4.8 mph 35 % 0.0 in 383.0 W/m2 CLR
16:35 26.1 °F 9.0 °F 1027.7 in West 11.3 mph 11.3 mph 34 % 0.0 in 373.0 W/m2 CLR
16:40 25.6 °F 8.1 °F 1027.7 in West 5.6 mph 5.6 mph 33 % 0.0 in 362.0 W/m2 CLR
16:45 25.6 °F 7.6 °F 1027.7 in West 5.6 mph 5.6 mph 32 % 0.0 in 348.0 W/m2 CLR
16:46 25.6 °F 8.1 °F 1027.7 in West 6.4 mph 6.4 mph 33 % 0.0 in 348.0 W/m2 CLR
16:51 26.1 °F 8.1 °F 1027.7 in Calm     32 % 0.0 in 334.0 W/m2 CLR
16:56 26.1 °F 8.1 °F 1027.7 in West 5.6 mph 5.6 mph 32 % 0.0 in 320.0 W/m2 CLR
17:01 26.7 °F 8.1 °F 1027.7 in West 9.3 mph 9.3 mph 31 % 0.0 in 308.0 W/m2 CLR
17:06 26.1 °F 7.7 °F 1027.7 in WNW 3.7 mph 3.7 mph 31 % 0.0 in 295.0 W/m2 CLR
17:11 26.1 °F 7.7 °F 1027.7 in West 3.7 mph   31 % 0.0 in 283.0 W/m2 CLR
17:16 26.1 °F 7.7 °F 1027.7 in WNW 5.6 mph 5.6 mph 31 % 0.0 in 265.0 W/m2 CLR
17:21 25.6 °F 7.2 °F 1027.7 in WNW 3.7 mph 3.7 mph 31 % 0.0 in 251.0 W/m2 CLR
17:26 25.6 °F 7.6 °F 1027.7 in WNW 9.7 mph 9.7 mph 32 % 0.0 in 234.0 W/m2 CLR
17:31 25.6 °F 7.6 °F 1027.7 in West 1.9 mph   32 % 0.0 in 218.0 W/m2 CLR
17:36 25.0 °F 6.7 °F 1027.7 in WNW 5.6 mph 5.6 mph 31 % 0.0 in 202.0 W/m2 CLR
17:41 25.0 °F 6.7 °F 1027.7 in WNW 5.6 mph 5.6 mph 31 % 0.0 in 183.0 W/m2 CLR
17:46 24.4 °F 5.7 °F 1027.7 in WNW 5.6 mph 5.6 mph 30 % 0.0 in 165.0 W/m2 CLR
17:51 23.9 °F 5.7 °F 1027.7 in West 3.7 mph 3.7 mph 31 % 0.0 in 149.0 W/m2 CLR
17:56 23.3 °F 5.2 °F 1027.7 in Calm     31 % 0.0 in 134.0 W/m2 CLR
18:01 22.8 °F 4.8 °F 1027.7 in Calm     31 % 0.0 in 113.0 W/m2 CLR
18:06 22.2 °F 4.3 °F 1027.7 in Calm     31 % 0.0 in 98.0 W/m2 CLR
18:11 21.1 °F 3.8 °F 1027.7 in Calm     32 % 0.0 in 84.0 W/m2 FEW
18:16 20.6 °F 3.3 °F 1027.7 in Calm     32 % 0.0 in 72.0 W/m2 FEW
18:21 20.0 °F 2.8 °F 1027.7 in Calm     32 % 0.0 in 54.0 W/m2 SCT
18:26 19.4 °F 2.7 °F 1028.0 in Calm     33 % 0.0 in 40.0 W/m2 BKN
18:31 18.9 °F 2.3 °F 1028.0 in Calm     33 % 0.0 in 30.0 W/m2 BKN
18:36 18.3 °F 1.8 °F 1028.0 in Calm     33 % 0.0 in 23.0 W/m2 BKN
18:41 17.8 °F 1.7 °F 1028.0 in Calm     34 % 0.0 in 14.0 W/m2 BKN
18:46 17.2 °F 1.2 °F 1028.0 in WNW 1.9 mph   34 % 0.0 in 12.0 W/m2 BKN
18:51 16.7 °F 1.1 °F 1028.0 in Calm     35 % 0.0 in 11.0 W/m2 BKN
18:56 16.7 °F 1.1 °F 1028.0 in Calm     35 % 0.0 in 7.0 W/m2 BKN
19:01 16.1 °F 1.0 °F 1028.0 in Calm     36 % 0.0 in 5.0 W/m2 OVC
19:06 16.1 °F 1.4 °F 1028.0 in Calm     37 % 0.0 in 0.0 W/m2 OVC
19:11 16.1 °F 1.8 °F 1028.3 in Calm     38 % 0.0 in 0.0 W/m2 OVC
19:16 16.7 °F 2.6 °F 1028.3 in Calm     39 % 0.0 in 0.0 W/m2 CLR
19:21 16.1 °F 2.5 °F 1028.3 in Calm     40 % 0.0 in 0.0 W/m2 CLR
19:26 16.1 °F 2.8 °F 1028.3 in Calm     41 % 0.0 in 0.0 W/m2 CLR
19:31 16.7 °F 4.0 °F 1028.3 in Calm     43 % 0.0 in 0.0 W/m2 CLR
19:36 16.7 °F 4.0 °F 1028.3 in Calm     43 % 0.0 in 0.0 W/m2 CLR
19:37 16.7 °F 4.0 °F 1028.7 in Calm     43 % 0.0 in 0.0 W/m2 CLR
19:42 16.1 °F 4.2 °F 1028.7 in Calm     45 % 0.0 in 0.0 W/m2 CLR
19:47 15.6 °F 3.9 °F 1028.7 in Calm     46 % 0.0 in 0.0 W/m2 CLR
19:52 15.0 °F 3.8 °F 1028.7 in Calm     47 % 0.0 in 0.0 W/m2 CLR
19:57 15.0 °F 4.4 °F 1029.0 in Calm     49 % 0.0 in 0.0 W/m2 CLR
19:58 15.0 °F 4.4 °F 1029.0 in Calm     49 % 0.0 in 0.0 W/m2 CLR
20:03 15.6 °F 5.2 °F 1029.0 in Calm     50 % 0.0 in 0.0 W/m2 CLR
20:08 15.0 °F 4.7 °F 1029.0 in Calm     50 % 0.0 in 0.0 W/m2 CLR
20:13 14.4 °F 4.4 °F 1029.0 in Calm     51 % 0.0 in 0.0 W/m2 CLR
20:18 13.9 °F 3.9 °F 1029.0 in Calm     51 % 0.0 in 0.0 W/m2 CLR
20:23 13.3 °F 3.7 °F 1029.3 in Calm     52 % 0.0 in 0.0 W/m2 CLR
20:28 12.8 °F 3.2 °F 1029.3 in Calm     52 % 0.0 in 0.0 W/m2 CLR
20:33 12.2 °F 2.7 °F 1029.3 in Calm     52 % 0.0 in 0.0 W/m2 CLR
20:38 12.2 °F 2.9 °F 1029.3 in Calm     53 % 0.0 in 0.0 W/m2 CLR
20:43 11.7 °F 2.4 °F 1029.3 in Calm     53 % 0.0 in 0.0 W/m2 CLR
20:48 11.1 °F 2.2 °F 1029.7 in Calm     54 % 0.0 in 0.0 W/m2 CLR
20:53 11.1 °F 2.4 °F 1029.7 in Calm     55 % 0.0 in 0.0 W/m2 CLR
20:58 10.6 °F 1.9 °F 1029.7 in SE 7.4 mph 7.4 mph 55 % 0.0 in 0.0 W/m2 CLR
21:03 10.6 °F 2.1 °F 1029.7 in Calm     56 % 0.0 in 0.0 W/m2 CLR
21:08 10.0 °F 1.6 °F 1029.7 in SE 5.6 mph 5.6 mph 56 % 0.0 in 0.0 W/m2 CLR
21:13 10.0 °F 1.9 °F 1029.7 in SE 5.6 mph 5.6 mph 57 % 0.0 in 0.0 W/m2 CLR
21:18 10.0 °F 1.9 °F 1029.7 in SSE 7.4 mph 7.4 mph 57 % 0.0 in 0.0 W/m2 CLR
21:23 9.4 °F 1.3 °F 1029.7 in Calm     57 % 0.0 in 0.0 W/m2 CLR
21:28 9.4 °F 1.3 °F 1029.7 in SE 3.7 mph 3.7 mph 57 % 0.0 in 0.0 W/m2 CLR
21:33 9.4 °F 1.6 °F 1029.7 in ESE 3.7 mph 3.7 mph 58 % 0.0 in 0.0 W/m2 CLR
21:38 9.4 °F 1.6 °F 1029.7 in SE 5.6 mph 5.6 mph 58 % 0.0 in 0.0 W/m2 CLR
21:43 9.4 °F 1.8 °F 1029.7 in SE 3.7 mph   59 % 0.0 in 0.0 W/m2 CLR
21:48 8.9 °F 1.3 °F 1029.7 in Calm     59 % 0.0 in 0.0 W/m2 CLR
21:53 8.9 °F 1.3 °F 1029.7 in SE 5.6 mph 5.6 mph 59 % 0.0 in 0.0 W/m2 CLR
21:58 8.9 °F 1.6 °F 1030.0 in SSE 5.6 mph 5.6 mph 60 % 0.0 in 0.0 W/m2 CLR
22:03 8.9 °F 1.6 °F 1030.0 in SE 7.4 mph 7.4 mph 60 % 0.0 in 0.0 W/m2 CLR
22:08 8.9 °F 1.6 °F 1030.0 in SSE 3.7 mph   60 % 0.0 in 0.0 W/m2 CLR
22:13 8.3 °F 1.0 °F 1030.0 in SSE 7.4 mph 7.4 mph 60 % 0.0 in 0.0 W/m2 CLR
22:18 8.3 °F 1.2 °F 1030.0 in SE 5.6 mph 5.6 mph 61 % 0.0 in 0.0 W/m2 CLR
22:23 8.3 °F 1.2 °F 1030.0 in Calm     61 % 0.0 in 0.0 W/m2 CLR
22:28 8.3 °F 1.2 °F 1030.0 in Calm     61 % 0.0 in 0.0 W/m2 CLR
22:33 8.3 °F 1.4 °F 1030.0 in Calm     62 % 0.0 in 0.0 W/m2 CLR
22:38 8.3 °F 1.4 °F 1030.0 in Calm     62 % 0.0 in 0.0 W/m2 CLR
22:43 8.3 °F 1.9 °F 1030.0 in SSE 9.3 mph 9.3 mph 64 % 0.0 in 0.0 W/m2 CLR
22:48 8.3 °F 2.1 °F 1030.4 in SSE 8.0 mph 8.0 mph 65 % 0.0 in 0.0 W/m2 CLR
22:53 8.3 °F 1.9 °F 1030.4 in Calm     64 % 0.0 in 0.0 W/m2 CLR
22:58 8.3 °F 1.4 °F 1030.4 in Calm     62 % 0.0 in 0.0 W/m2 CLR
23:03 8.3 °F 1.7 °F 1030.4 in Calm     63 % 0.0 in 0.0 W/m2 CLR
23:08 8.3 °F 1.7 °F 1030.4 in Calm     63 % 0.0 in 0.0 W/m2 CLR
23:13 8.3 °F 1.7 °F 1030.4 in Calm     63 % 0.0 in 0.0 W/m2 CLR
23:18 7.8 °F 1.4 °F 1030.4 in Calm     64 % 0.0 in 0.0 W/m2 CLR
23:23 7.8 °F 1.4 °F 1030.7 in Calm     64 % 0.0 in 0.0 W/m2 CLR
23:28 7.8 °F 1.8 °F 1030.7 in Calm     66 % 0.0 in 0.0 W/m2 CLR
23:33 7.8 °F 2.2 °F 1030.7 in Calm     68 % 0.0 in 0.0 W/m2 CLR
23:38 7.8 °F 2.1 °F 1030.7 in Calm     67 % 0.0 in 0.0 W/m2 CLR
23:43 8.3 °F 2.8 °F 1030.7 in Calm     68 % 0.0 in 0.0 W/m2 CLR
23:48 8.9 °F 3.5 °F 1030.7 in Calm     69 % 0.0 in 0.0 W/m2 CLR
23:53 8.9 °F 3.5 °F 1030.7 in Calm     69 % 0.0 in 0.0 W/m2 CLR
23:58 8.9 °F 3.7 °F 1030.7 in Calm     70 % 0.0 in 0.0 W/m2 CLR
Lo Temps de Massalio
Compliments of Weather Underground - 1.25 mb